sensor_id;sensor_type;location;lat;lon;timestamp;temperature;humidity
4245;DHT22;2136;48.502;9.194;2022-08-04T00:02:23;24.10;68.00
4245;DHT22;2136;48.502;9.194;2022-08-04T00:04:54;24.00;67.60
4245;DHT22;2136;48.502;9.194;2022-08-04T00:07:29;23.90;68.70
4245;DHT22;2136;48.502;9.194;2022-08-04T00:10:04;23.90;69.00
4245;DHT22;2136;48.502;9.194;2022-08-04T00:12:33;23.80;70.20
4245;DHT22;2136;48.502;9.194;2022-08-04T00:15:04;23.80;71.10
4245;DHT22;2136;48.502;9.194;2022-08-04T00:17:37;23.70;71.50
4245;DHT22;2136;48.502;9.194;2022-08-04T00:20:05;23.70;71.80
4245;DHT22;2136;48.502;9.194;2022-08-04T00:22:34;23.60;71.60
4245;DHT22;2136;48.502;9.194;2022-08-04T00:25:03;23.60;71.70
4245;DHT22;2136;48.502;9.194;2022-08-04T00:27:30;23.50;72.00
4245;DHT22;2136;48.502;9.194;2022-08-04T00:29:58;23.50;72.80
4245;DHT22;2136;48.502;9.194;2022-08-04T00:32:26;23.40;73.40
4245;DHT22;2136;48.502;9.194;2022-08-04T00:34:54;23.30;74.00
4245;DHT22;2136;48.502;9.194;2022-08-04T00:37:21;23.30;75.30
4245;DHT22;2136;48.502;9.194;2022-08-04T00:39:48;23.30;75.00
4245;DHT22;2136;48.502;9.194;2022-08-04T00:42:30;23.20;75.80
4245;DHT22;2136;48.502;9.194;2022-08-04T00:45:39;23.10;77.50
4245;DHT22;2136;48.502;9.194;2022-08-04T00:48:17;23.10;76.80
4245;DHT22;2136;48.502;9.194;2022-08-04T00:50:51;23.00;77.30
4245;DHT22;2136;48.502;9.194;2022-08-04T00:53:30;23.00;77.70
4245;DHT22;2136;48.502;9.194;2022-08-04T00:56:04;22.90;80.30
4245;DHT22;2136;48.502;9.194;2022-08-04T00:58:46;22.90;81.10
4245;DHT22;2136;48.502;9.194;2022-08-04T01:01:27;22.80;81.60
4245;DHT22;2136;48.502;9.194;2022-08-04T01:04:02;22.80;82.40
4245;DHT22;2136;48.502;9.194;2022-08-04T01:06:35;22.70;82.70
4245;DHT22;2136;48.502;9.194;2022-08-04T01:09:14;22.70;81.10
4245;DHT22;2136;48.502;9.194;2022-08-04T01:12:04;22.60;82.00
4245;DHT22;2136;48.502;9.194;2022-08-04T01:14:58;22.60;83.30
4245;DHT22;2136;48.502;9.194;2022-08-04T01:17:40;22.50;85.20
4245;DHT22;2136;48.502;9.194;2022-08-04T01:20:14;22.50;85.80
4245;DHT22;2136;48.502;9.194;2022-08-04T01:29:09;22.50;86.40
4245;DHT22;2136;48.502;9.194;2022-08-04T01:31:47;22.50;85.70
4245;DHT22;2136;48.502;9.194;2022-08-04T01:34:19;22.50;86.10
4245;DHT22;2136;48.502;9.194;2022-08-04T01:36:56;22.50;85.30
4245;DHT22;2136;48.502;9.194;2022-08-04T01:39:33;22.50;84.50
4245;DHT22;2136;48.502;9.194;2022-08-04T01:42:07;22.50;84.60
4245;DHT22;2136;48.502;9.194;2022-08-04T01:44:37;22.60;84.20
4245;DHT22;2136;48.502;9.194;2022-08-04T01:47:06;22.60;83.20
4245;DHT22;2136;48.502;9.194;2022-08-04T01:49:34;22.70;82.70
4245;DHT22;2136;48.502;9.194;2022-08-04T01:52:03;22.60;79.80
4245;DHT22;2136;48.502;9.194;2022-08-04T01:54:31;22.50;76.40
4245;DHT22;2136;48.502;9.194;2022-08-04T01:57:04;22.50;75.90
4245;DHT22;2136;48.502;9.194;2022-08-04T01:59:33;22.50;75.70
4245;DHT22;2136;48.502;9.194;2022-08-04T02:02:01;22.50;76.50
4245;DHT22;2136;48.502;9.194;2022-08-04T02:04:28;22.50;77.70
4245;DHT22;2136;48.502;9.194;2022-08-04T02:07:17;22.50;78.50
4245;DHT22;2136;48.502;9.194;2022-08-04T02:09:51;22.40;78.50
4245;DHT22;2136;48.502;9.194;2022-08-04T02:12:24;22.40;77.80
4245;DHT22;2136;48.502;9.194;2022-08-04T02:14:56;22.30;77.60
4245;DHT22;2136;48.502;9.194;2022-08-04T02:17:31;22.20;78.10
4245;DHT22;2136;48.502;9.194;2022-08-04T02:20:08;22.20;77.40
4245;DHT22;2136;48.502;9.194;2022-08-04T02:22:40;22.10;77.60
4245;DHT22;2136;48.502;9.194;2022-08-04T02:25:09;22.00;78.40
4245;DHT22;2136;48.502;9.194;2022-08-04T02:27:59;22.00;79.30
4245;DHT22;2136;48.502;9.194;2022-08-04T02:30:39;21.90;80.40
4245;DHT22;2136;48.502;9.194;2022-08-04T02:33:09;21.90;81.00
4245;DHT22;2136;48.502;9.194;2022-08-04T02:35:40;21.80;81.80
4245;DHT22;2136;48.502;9.194;2022-08-04T02:38:15;21.80;82.00
4245;DHT22;2136;48.502;9.194;2022-08-04T02:40:45;21.80;82.50
4245;DHT22;2136;48.502;9.194;2022-08-04T02:43:14;21.70;83.50
4245;DHT22;2136;48.502;9.194;2022-08-04T02:45:45;21.70;84.60
4245;DHT22;2136;48.502;9.194;2022-08-04T02:48:14;21.70;85.60
4245;DHT22;2136;48.502;9.194;2022-08-04T02:50:43;21.60;86.20
4245;DHT22;2136;48.502;9.194;2022-08-04T02:53:13;21.60;87.20
4245;DHT22;2136;48.502;9.194;2022-08-04T02:55:43;21.50;86.80
4245;DHT22;2136;48.502;9.194;2022-08-04T02:58:11;21.50;87.60
4245;DHT22;2136;48.502;9.194;2022-08-04T03:00:41;21.40;88.30
4245;DHT22;2136;48.502;9.194;2022-08-04T03:03:18;21.40;89.00
4245;DHT22;2136;48.502;9.194;2022-08-04T03:06:05;21.40;89.10
4245;DHT22;2136;48.502;9.194;2022-08-04T03:09:04;21.40;89.30
4245;DHT22;2136;48.502;9.194;2022-08-04T03:11:55;21.30;89.30
4245;DHT22;2136;48.502;9.194;2022-08-04T03:14:53;21.30;90.10
4245;DHT22;2136;48.502;9.194;2022-08-04T03:17:52;21.20;90.40
4245;DHT22;2136;48.502;9.194;2022-08-04T03:20:56;21.20;90.50
4245;DHT22;2136;48.502;9.194;2022-08-04T03:26:51;21.10;90.50
4245;DHT22;2136;48.502;9.194;2022-08-04T03:36:20;21.10;90.80
4245;DHT22;2136;48.502;9.194;2022-08-04T03:39:17;21.00;90.70
4245;DHT22;2136;48.502;9.194;2022-08-04T03:42:21;21.00;91.30
4245;DHT22;2136;48.502;9.194;2022-08-04T03:45:12;21.00;92.30
4245;DHT22;2136;48.502;9.194;2022-08-04T03:48:05;21.00;92.80
4245;DHT22;2136;48.502;9.194;2022-08-04T03:51:06;21.00;93.00
4245;DHT22;2136;48.502;9.194;2022-08-04T03:54:08;21.00;93.10
4245;DHT22;2136;48.502;9.194;2022-08-04T04:00:07;21.00;93.30
4245;DHT22;2136;48.502;9.194;2022-08-04T04:02:56;21.00;93.80
4245;DHT22;2136;48.502;9.194;2022-08-04T04:05:39;21.00;93.60
4245;DHT22;2136;48.502;9.194;2022-08-04T04:08:33;21.00;93.70
4245;DHT22;2136;48.502;9.194;2022-08-04T04:14:16;20.90;92.10
4245;DHT22;2136;48.502;9.194;2022-08-04T04:16:57;21.00;92.00
4245;DHT22;2136;48.502;9.194;2022-08-04T04:19:53;20.90;91.80
4245;DHT22;2136;48.502;9.194;2022-08-04T04:22:44;20.90;92.50
4245;DHT22;2136;48.502;9.194;2022-08-04T04:25:32;20.90;92.40
4245;DHT22;2136;48.502;9.194;2022-08-04T04:28:16;20.90;92.40
4245;DHT22;2136;48.502;9.194;2022-08-04T04:30:52;20.90;92.00
4245;DHT22;2136;48.502;9.194;2022-08-04T04:33:36;20.90;91.90
4245;DHT22;2136;48.502;9.194;2022-08-04T04:36:10;20.90;92.00
4245;DHT22;2136;48.502;9.194;2022-08-04T04:38:49;20.90;92.50
4245;DHT22;2136;48.502;9.194;2022-08-04T04:41:34;20.90;93.10
4245;DHT22;2136;48.502;9.194;2022-08-04T04:44:28;21.00;93.40
4245;DHT22;2136;48.502;9.194;2022-08-04T04:47:08;21.00;93.20
4245;DHT22;2136;48.502;9.194;2022-08-04T04:49:44;21.00;92.60
4245;DHT22;2136;48.502;9.194;2022-08-04T04:52:19;21.00;92.60
4245;DHT22;2136;48.502;9.194;2022-08-04T04:54:53;21.00;92.40
4245;DHT22;2136;48.502;9.194;2022-08-04T04:57:22;21.00;92.10
4245;DHT22;2136;48.502;9.194;2022-08-04T04:59:55;21.00;91.90
4245;DHT22;2136;48.502;9.194;2022-08-04T05:02:41;21.00;92.20
4245;DHT22;2136;48.502;9.194;2022-08-04T05:08:47;21.00;92.00
4245;DHT22;2136;48.502;9.194;2022-08-04T05:11:29;21.00;91.70
4245;DHT22;2136;48.502;9.194;2022-08-04T05:14:03;21.00;90.80
4245;DHT22;2136;48.502;9.194;2022-08-04T05:16:36;21.10;90.60
4245;DHT22;2136;48.502;9.194;2022-08-04T05:19:18;21.10;90.60
4245;DHT22;2136;48.502;9.194;2022-08-04T05:21:50;21.10;90.40
4245;DHT22;2136;48.502;9.194;2022-08-04T05:24:20;21.10;90.50
4245;DHT22;2136;48.502;9.194;2022-08-04T05:26:51;21.20;90.70
4245;DHT22;2136;48.502;9.194;2022-08-04T05:29:25;21.20;90.00
4245;DHT22;2136;48.502;9.194;2022-08-04T05:31:55;21.30;89.50
4245;DHT22;2136;48.502;9.194;2022-08-04T05:34:26;21.30;88.00
4245;DHT22;2136;48.502;9.194;2022-08-04T05:36:57;21.40;87.40
4245;DHT22;2136;48.502;9.194;2022-08-04T05:39:27;21.40;86.80
4245;DHT22;2136;48.502;9.194;2022-08-04T05:41:55;21.40;87.40
4245;DHT22;2136;48.502;9.194;2022-08-04T05:44:23;21.50;86.10
4245;DHT22;2136;48.502;9.194;2022-08-04T05:46:55;21.50;85.70
4245;DHT22;2136;48.502;9.194;2022-08-04T05:49:24;21.60;85.80
4245;DHT22;2136;48.502;9.194;2022-08-04T05:51:52;21.60;84.40
4245;DHT22;2136;48.502;9.194;2022-08-04T05:54:21;21.60;84.10
4245;DHT22;2136;48.502;9.194;2022-08-04T05:56:49;21.70;84.40
4245;DHT22;2136;48.502;9.194;2022-08-04T05:59:17;21.70;84.30
4245;DHT22;2136;48.502;9.194;2022-08-04T06:01:45;21.80;84.10
4245;DHT22;2136;48.502;9.194;2022-08-04T06:04:15;21.80;84.00
4245;DHT22;2136;48.502;9.194;2022-08-04T06:06:43;21.90;84.60
4245;DHT22;2136;48.502;9.194;2022-08-04T06:09:10;21.90;83.10
4245;DHT22;2136;48.502;9.194;2022-08-04T06:11:38;22.00;81.90
4245;DHT22;2136;48.502;9.194;2022-08-04T06:14:08;22.10;81.10
4245;DHT22;2136;48.502;9.194;2022-08-04T06:16:38;22.20;80.70
4245;DHT22;2136;48.502;9.194;2022-08-04T06:19:08;22.20;80.40
4245;DHT22;2136;48.502;9.194;2022-08-04T06:21:40;22.30;79.40
4245;DHT22;2136;48.502;9.194;2022-08-04T06:24:15;22.40;80.00
4245;DHT22;2136;48.502;9.194;2022-08-04T06:26:43;22.50;78.90
4245;DHT22;2136;48.502;9.194;2022-08-04T06:29:12;22.50;78.00
4245;DHT22;2136;48.502;9.194;2022-08-04T06:31:43;22.60;78.20
4245;DHT22;2136;48.502;9.194;2022-08-04T06:34:13;22.70;76.60
4245;DHT22;2136;48.502;9.194;2022-08-04T06:36:42;22.80;76.70
4245;DHT22;2136;48.502;9.194;2022-08-04T06:39:10;22.90;75.20
4245;DHT22;2136;48.502;9.194;2022-08-04T06:41:37;23.00;74.80
4245;DHT22;2136;48.502;9.194;2022-08-04T06:44:07;23.10;74.30
4245;DHT22;2136;48.502;9.194;2022-08-04T06:46:37;23.20;73.50
4245;DHT22;2136;48.502;9.194;2022-08-04T06:49:06;23.20;72.20
4245;DHT22;2136;48.502;9.194;2022-08-04T06:51:35;23.30;71.10
4245;DHT22;2136;48.502;9.194;2022-08-04T06:54:04;23.40;71.80
4245;DHT22;2136;48.502;9.194;2022-08-04T06:56:33;23.50;70.80
4245;DHT22;2136;48.502;9.194;2022-08-04T06:59:01;23.60;71.00
4245;DHT22;2136;48.502;9.194;2022-08-04T07:01:29;23.70;71.10
4245;DHT22;2136;48.502;9.194;2022-08-04T07:03:58;23.80;70.80
4245;DHT22;2136;48.502;9.194;2022-08-04T07:06:25;23.90;71.10
4245;DHT22;2136;48.502;9.194;2022-08-04T07:08:52;24.10;70.20
4245;DHT22;2136;48.502;9.194;2022-08-04T07:11:22;24.10;70.40
4245;DHT22;2136;48.502;9.194;2022-08-04T07:13:50;24.20;69.00
4245;DHT22;2136;48.502;9.194;2022-08-04T07:16:19;24.30;68.20
4245;DHT22;2136;48.502;9.194;2022-08-04T07:18:47;24.40;67.10
4245;DHT22;2136;48.502;9.194;2022-08-04T07:21:19;24.60;67.00
4245;DHT22;2136;48.502;9.194;2022-08-04T07:23:47;24.70;66.50
4245;DHT22;2136;48.502;9.194;2022-08-04T07:26:15;24.80;67.00
4245;DHT22;2136;48.502;9.194;2022-08-04T07:28:46;24.90;65.70
4245;DHT22;2136;48.502;9.194;2022-08-04T07:31:15;25.00;65.30
4245;DHT22;2136;48.502;9.194;2022-08-04T07:33:44;25.20;64.60
4245;DHT22;2136;48.502;9.194;2022-08-04T07:36:11;25.30;64.50
4245;DHT22;2136;48.502;9.194;2022-08-04T07:38:39;25.40;63.80
4245;DHT22;2136;48.502;9.194;2022-08-04T07:41:07;25.50;63.70
4245;DHT22;2136;48.502;9.194;2022-08-04T07:43:35;25.50;63.40
4245;DHT22;2136;48.502;9.194;2022-08-04T07:46:04;25.70;63.50
4245;DHT22;2136;48.502;9.194;2022-08-04T07:48:31;25.80;64.30
4245;DHT22;2136;48.502;9.194;2022-08-04T07:50:59;25.90;62.80
4245;DHT22;2136;48.502;9.194;2022-08-04T07:53:27;26.00;61.80
4245;DHT22;2136;48.502;9.194;2022-08-04T07:55:55;26.10;61.10
4245;DHT22;2136;48.502;9.194;2022-08-04T07:58:22;26.20;60.80
4245;DHT22;2136;48.502;9.194;2022-08-04T08:00:49;26.30;60.30
4245;DHT22;2136;48.502;9.194;2022-08-04T08:03:18;26.40;60.00
4245;DHT22;2136;48.502;9.194;2022-08-04T08:05:45;26.50;59.60
4245;DHT22;2136;48.502;9.194;2022-08-04T08:08:12;26.60;59.30
4245;DHT22;2136;48.502;9.194;2022-08-04T08:10:45;26.70;59.50
4245;DHT22;2136;48.502;9.194;2022-08-04T08:13:12;26.80;58.50
4245;DHT22;2136;48.502;9.194;2022-08-04T08:15:40;27.00;59.30
4245;DHT22;2136;48.502;9.194;2022-08-04T08:18:09;27.10;58.80
4245;DHT22;2136;48.502;9.194;2022-08-04T08:20:37;27.30;58.40
4245;DHT22;2136;48.502;9.194;2022-08-04T08:23:07;27.40;57.90
4245;DHT22;2136;48.502;9.194;2022-08-04T08:25:34;27.50;57.50
4245;DHT22;2136;48.502;9.194;2022-08-04T08:28:05;27.60;57.20
4245;DHT22;2136;48.502;9.194;2022-08-04T08:30:32;27.70;57.10
4245;DHT22;2136;48.502;9.194;2022-08-04T08:33:01;27.80;56.80
4245;DHT22;2136;48.502;9.194;2022-08-04T08:35:33;28.00;56.70
4245;DHT22;2136;48.502;9.194;2022-08-04T08:38:04;28.10;56.30
4245;DHT22;2136;48.502;9.194;2022-08-04T08:40:38;28.20;56.30
4245;DHT22;2136;48.502;9.194;2022-08-04T08:43:28;28.30;56.00
4245;DHT22;2136;48.502;9.194;2022-08-04T08:46:29;28.50;56.40
4245;DHT22;2136;48.502;9.194;2022-08-04T08:52:04;28.90;56.00
4245;DHT22;2136;48.502;9.194;2022-08-04T08:54:50;29.10;55.70
4245;DHT22;2136;48.502;9.194;2022-08-04T09:00:17;29.60;55.40
4245;DHT22;2136;48.502;9.194;2022-08-04T09:06:00;30.10;54.70
4245;DHT22;2136;48.502;9.194;2022-08-04T09:08:49;30.30;54.20
4245;DHT22;2136;48.502;9.194;2022-08-04T09:14:52;30.90;52.60
4245;DHT22;2136;48.502;9.194;2022-08-04T09:17:26;31.10;51.90
4245;DHT22;2136;48.502;9.194;2022-08-04T09:20:00;31.30;52.00
4245;DHT22;2136;48.502;9.194;2022-08-04T09:22:35;31.50;52.80
4245;DHT22;2136;48.502;9.194;2022-08-04T09:25:10;31.70;50.90
4245;DHT22;2136;48.502;9.194;2022-08-04T09:27:45;31.90;50.50
4245;DHT22;2136;48.502;9.194;2022-08-04T09:30:17;32.10;49.60
4245;DHT22;2136;48.502;9.194;2022-08-04T09:32:56;32.40;49.40
4245;DHT22;2136;48.502;9.194;2022-08-04T09:35:33;32.70;48.10
4245;DHT22;2136;48.502;9.194;2022-08-04T09:38:09;33.20;46.60
4245;DHT22;2136;48.502;9.194;2022-08-04T09:40:46;34.00;45.50
4245;DHT22;2136;48.502;9.194;2022-08-04T09:43:24;34.80;44.00
4245;DHT22;2136;48.502;9.194;2022-08-04T09:46:01;35.50;41.70
4245;DHT22;2136;48.502;9.194;2022-08-04T09:48:41;36.50;40.70
4245;DHT22;2136;48.502;9.194;2022-08-04T09:51:15;37.70;39.10
4245;DHT22;2136;48.502;9.194;2022-08-04T09:53:54;38.90;36.60
4245;DHT22;2136;48.502;9.194;2022-08-04T09:56:27;40.60;36.00
4245;DHT22;2136;48.502;9.194;2022-08-04T09:59:34;42.20;34.30
4245;DHT22;2136;48.502;9.194;2022-08-04T10:02:06;44.00;32.50
4245;DHT22;2136;48.502;9.194;2022-08-04T10:04:34;45.80;29.80
4245;DHT22;2136;48.502;9.194;2022-08-04T10:07:15;47.50;28.70
4245;DHT22;2136;48.502;9.194;2022-08-04T10:09:56;49.10;27.20
4245;DHT22;2136;48.502;9.194;2022-08-04T10:12:30;50.60;26.10
4245;DHT22;2136;48.502;9.194;2022-08-04T10:15:08;52.30;24.80
4245;DHT22;2136;48.502;9.194;2022-08-04T10:17:44;53.80;23.50
4245;DHT22;2136;48.502;9.194;2022-08-04T10:20:21;55.30;23.00
4245;DHT22;2136;48.502;9.194;2022-08-04T10:22:56;56.80;22.00
4245;DHT22;2136;48.502;9.194;2022-08-04T10:25:37;57.80;21.40
4245;DHT22;2136;48.502;9.194;2022-08-04T10:28:13;58.90;21.30
4245;DHT22;2136;48.502;9.194;2022-08-04T10:30:47;59.90;21.80
4245;DHT22;2136;48.502;9.194;2022-08-04T10:36:46;61.70;19.10
4245;DHT22;2136;48.502;9.194;2022-08-04T10:39:21;62.50;18.80
4245;DHT22;2136;48.502;9.194;2022-08-04T10:41:55;62.90;19.00
4245;DHT22;2136;48.502;9.194;2022-08-04T10:44:35;62.90;18.80
4245;DHT22;2136;48.502;9.194;2022-08-04T10:47:07;62.90;18.50
4245;DHT22;2136;48.502;9.194;2022-08-04T10:49:40;63.20;18.50
4245;DHT22;2136;48.502;9.194;2022-08-04T10:52:14;63.40;17.80
4245;DHT22;2136;48.502;9.194;2022-08-04T10:54:50;63.70;18.10
4245;DHT22;2136;48.502;9.194;2022-08-04T10:57:22;64.00;17.80
4245;DHT22;2136;48.502;9.194;2022-08-04T10:59:57;64.40;17.40
4245;DHT22;2136;48.502;9.194;2022-08-04T11:02:40;64.80;17.60
4245;DHT22;2136;48.502;9.194;2022-08-04T11:05:16;65.10;17.60
4245;DHT22;2136;48.502;9.194;2022-08-04T11:07:48;65.50;17.10
4245;DHT22;2136;48.502;9.194;2022-08-04T11:10:18;65.60;17.00
4245;DHT22;2136;48.502;9.194;2022-08-04T11:12:47;65.90;16.90
4245;DHT22;2136;48.502;9.194;2022-08-04T11:15:19;66.00;16.70
4245;DHT22;2136;48.502;9.194;2022-08-04T11:17:52;66.40;17.00
4245;DHT22;2136;48.502;9.194;2022-08-04T11:20:27;66.50;15.70
4245;DHT22;2136;48.502;9.194;2022-08-04T11:23:02;66.50;15.70
4245;DHT22;2136;48.502;9.194;2022-08-04T11:32:18;66.40;15.60
4245;DHT22;2136;48.502;9.194;2022-08-04T11:34:48;66.40;15.80
4245;DHT22;2136;48.502;9.194;2022-08-04T11:37:20;66.50;15.60
4245;DHT22;2136;48.502;9.194;2022-08-04T11:43:18;66.90;15.70
4245;DHT22;2136;48.502;9.194;2022-08-04T11:45:52;67.10;15.80
4245;DHT22;2136;48.502;9.194;2022-08-04T11:48:26;66.80;15.60
4245;DHT22;2136;48.502;9.194;2022-08-04T11:50:56;65.80;15.70
4245;DHT22;2136;48.502;9.194;2022-08-04T11:53:27;63.60;15.70
4245;DHT22;2136;48.502;9.194;2022-08-04T11:55:59;61.30;16.00
4245;DHT22;2136;48.502;9.194;2022-08-04T11:58:28;59.20;16.50
4245;DHT22;2136;48.502;9.194;2022-08-04T12:01:09;57.40;17.00
4245;DHT22;2136;48.502;9.194;2022-08-04T12:03:45;56.90;17.50
4245;DHT22;2136;48.502;9.194;2022-08-04T12:06:19;56.30;17.80
4245;DHT22;2136;48.502;9.194;2022-08-04T12:09:08;55.00;18.10
4245;DHT22;2136;48.502;9.194;2022-08-04T12:11:45;53.00;19.30
4245;DHT22;2136;48.502;9.194;2022-08-04T12:14:27;51.20;20.30
4245;DHT22;2136;48.502;9.194;2022-08-04T12:16:58;49.40;20.80
4245;DHT22;2136;48.502;9.194;2022-08-04T12:19:31;47.70;21.10
4245;DHT22;2136;48.502;9.194;2022-08-04T12:22:03;46.20;22.30
4245;DHT22;2136;48.502;9.194;2022-08-04T12:24:33;45.00;23.10
4245;DHT22;2136;48.502;9.194;2022-08-04T12:27:06;44.00;23.80
4245;DHT22;2136;48.502;9.194;2022-08-04T12:29:39;43.10;24.00
4245;DHT22;2136;48.502;9.194;2022-08-04T12:32:17;42.40;25.10
4245;DHT22;2136;48.502;9.194;2022-08-04T12:34:51;41.70;24.70
4245;DHT22;2136;48.502;9.194;2022-08-04T12:37:28;41.10;25.50
4245;DHT22;2136;48.502;9.194;2022-08-04T12:40:02;40.50;25.80
4245;DHT22;2136;48.502;9.194;2022-08-04T12:42:39;40.00;26.40
4245;DHT22;2136;48.502;9.194;2022-08-04T12:45:10;39.60;26.50
4245;DHT22;2136;48.502;9.194;2022-08-04T12:47:40;39.60;26.80
4245;DHT22;2136;48.502;9.194;2022-08-04T12:50:09;39.90;27.10
4245;DHT22;2136;48.502;9.194;2022-08-04T12:52:45;40.20;27.00
4245;DHT22;2136;48.502;9.194;2022-08-04T12:55:13;40.40;26.90
4245;DHT22;2136;48.502;9.194;2022-08-04T12:57:41;40.90;27.20
4245;DHT22;2136;48.502;9.194;2022-08-04T13:00:22;41.20;27.00
4245;DHT22;2136;48.502;9.194;2022-08-04T13:02:51;42.00;26.50
4245;DHT22;2136;48.502;9.194;2022-08-04T13:05:20;43.10;26.10
4245;DHT22;2136;48.502;9.194;2022-08-04T13:07:49;43.50;26.00
4245;DHT22;2136;48.502;9.194;2022-08-04T13:10:19;43.50;25.90
4245;DHT22;2136;48.502;9.194;2022-08-04T13:12:52;43.30;25.70
4245;DHT22;2136;48.502;9.194;2022-08-04T13:15:23;43.10;25.40
4245;DHT22;2136;48.502;9.194;2022-08-04T13:17:53;42.70;25.30
4245;DHT22;2136;48.502;9.194;2022-08-04T13:20:25;42.40;25.30
4245;DHT22;2136;48.502;9.194;2022-08-04T13:22:59;42.20;25.40
4245;DHT22;2136;48.502;9.194;2022-08-04T13:25:29;41.90;26.00
4245;DHT22;2136;48.502;9.194;2022-08-04T13:31:21;41.50;26.30
4245;DHT22;2136;48.502;9.194;2022-08-04T13:33:50;41.40;27.30
4245;DHT22;2136;48.502;9.194;2022-08-04T13:36:18;41.10;26.70
4245;DHT22;2136;48.502;9.194;2022-08-04T13:42:04;40.50;27.60
4245;DHT22;2136;48.502;9.194;2022-08-04T13:44:35;40.90;27.40
4245;DHT22;2136;48.502;9.194;2022-08-04T13:47:05;41.30;26.90
4245;DHT22;2136;48.502;9.194;2022-08-04T13:49:32;41.60;26.30
4245;DHT22;2136;48.502;9.194;2022-08-04T13:52:01;41.40;26.80
4245;DHT22;2136;48.502;9.194;2022-08-04T13:57:55;40.70;26.60
4245;DHT22;2136;48.502;9.194;2022-08-04T14:00:24;40.40;27.50
4245;DHT22;2136;48.502;9.194;2022-08-04T14:03:00;40.80;27.10
4245;DHT22;2136;48.502;9.194;2022-08-04T14:05:29;41.30;27.20
4245;DHT22;2136;48.502;9.194;2022-08-04T14:08:04;41.70;27.00
4245;DHT22;2136;48.502;9.194;2022-08-04T14:10:33;41.50;26.50
4245;DHT22;2136;48.502;9.194;2022-08-04T14:13:02;41.40;26.50
4245;DHT22;2136;48.502;9.194;2022-08-04T14:15:36;41.50;26.30
4245;DHT22;2136;48.502;9.194;2022-08-04T14:18:22;41.50;26.00
4245;DHT22;2136;48.502;9.194;2022-08-04T14:21:05;41.50;26.60
4245;DHT22;2136;48.502;9.194;2022-08-04T14:23:42;41.50;27.20
4245;DHT22;2136;48.502;9.194;2022-08-04T14:26:14;41.50;26.00
4245;DHT22;2136;48.502;9.194;2022-08-04T14:28:40;41.70;27.20
4245;DHT22;2136;48.502;9.194;2022-08-04T14:31:09;42.30;27.80
4245;DHT22;2136;48.502;9.194;2022-08-04T14:33:39;42.50;27.00
4245;DHT22;2136;48.502;9.194;2022-08-04T14:36:07;42.40;26.10
4245;DHT22;2136;48.502;9.194;2022-08-04T14:38:46;42.30;26.30
4245;DHT22;2136;48.502;9.194;2022-08-04T14:41:15;42.20;26.40
4245;DHT22;2136;48.502;9.194;2022-08-04T14:43:43;41.80;25.80
4245;DHT22;2136;48.502;9.194;2022-08-04T14:46:11;41.50;25.80
4245;DHT22;2136;48.502;9.194;2022-08-04T14:48:59;41.30;26.50
4245;DHT22;2136;48.502;9.194;2022-08-04T14:51:26;41.00;27.40
4245;DHT22;2136;48.502;9.194;2022-08-04T14:57:15;40.50;27.20
4245;DHT22;2136;48.502;9.194;2022-08-04T14:59:43;40.40;27.50
4245;DHT22;2136;48.502;9.194;2022-08-04T15:05:34;39.80;27.70
4245;DHT22;2136;48.502;9.194;2022-08-04T15:08:01;39.50;27.80
4245;DHT22;2136;48.502;9.194;2022-08-04T15:10:28;39.20;28.30
4245;DHT22;2136;48.502;9.194;2022-08-04T15:12:55;38.90;28.30
4245;DHT22;2136;48.502;9.194;2022-08-04T15:15:22;38.70;28.80
4245;DHT22;2136;48.502;9.194;2022-08-04T15:17:50;38.50;29.20
4245;DHT22;2136;48.502;9.194;2022-08-04T15:20:17;38.40;29.10
4245;DHT22;2136;48.502;9.194;2022-08-04T15:22:46;38.30;28.80
4245;DHT22;2136;48.502;9.194;2022-08-04T15:25:13;38.30;29.10
4245;DHT22;2136;48.502;9.194;2022-08-04T15:27:41;38.20;29.70
4245;DHT22;2136;48.502;9.194;2022-08-04T15:30:15;38.10;29.60
4245;DHT22;2136;48.502;9.194;2022-08-04T15:32:47;38.10;30.00
4245;DHT22;2136;48.502;9.194;2022-08-04T15:35:18;38.00;31.20
4245;DHT22;2136;48.502;9.194;2022-08-04T15:37:53;37.90;30.30
4245;DHT22;2136;48.502;9.194;2022-08-04T15:40:28;37.70;30.30
4245;DHT22;2136;48.502;9.194;2022-08-04T15:43:10;37.60;30.60
4245;DHT22;2136;48.502;9.194;2022-08-04T15:45:52;37.40;30.60
4245;DHT22;2136;48.502;9.194;2022-08-04T15:48:23;37.20;31.90
4245;DHT22;2136;48.502;9.194;2022-08-04T15:51:05;37.00;31.60
4245;DHT22;2136;48.502;9.194;2022-08-04T15:56:43;36.70;31.70
4245;DHT22;2136;48.502;9.194;2022-08-04T15:59:10;36.60;31.90
4245;DHT22;2136;48.502;9.194;2022-08-04T16:01:37;36.40;32.20
4245;DHT22;2136;48.502;9.194;2022-08-04T16:04:20;36.40;32.60
4245;DHT22;2136;48.502;9.194;2022-08-04T16:06:47;36.20;33.10
4245;DHT22;2136;48.502;9.194;2022-08-04T16:09:24;36.10;32.50
4245;DHT22;2136;48.502;9.194;2022-08-04T16:11:52;36.10;32.60
4245;DHT22;2136;48.502;9.194;2022-08-04T16:14:33;36.00;32.70
4245;DHT22;2136;48.502;9.194;2022-08-04T16:17:16;36.00;32.80
4245;DHT22;2136;48.502;9.194;2022-08-04T16:20:07;36.00;33.10
4245;DHT22;2136;48.502;9.194;2022-08-04T16:22:38;36.10;33.70
4245;DHT22;2136;48.502;9.194;2022-08-04T16:25:08;36.20;33.40
4245;DHT22;2136;48.502;9.194;2022-08-04T16:27:40;36.20;33.00
4245;DHT22;2136;48.502;9.194;2022-08-04T16:30:09;36.20;33.40
4245;DHT22;2136;48.502;9.194;2022-08-04T16:32:44;36.20;32.70
4245;DHT22;2136;48.502;9.194;2022-08-04T16:35:22;36.20;32.70
4245;DHT22;2136;48.502;9.194;2022-08-04T16:37:52;36.10;32.50
4245;DHT22;2136;48.502;9.194;2022-08-04T16:40:32;36.10;33.00
4245;DHT22;2136;48.502;9.194;2022-08-04T16:43:08;36.00;33.00
4245;DHT22;2136;48.502;9.194;2022-08-04T16:45:44;35.90;33.80
4245;DHT22;2136;48.502;9.194;2022-08-04T16:48:12;35.80;33.70
4245;DHT22;2136;48.502;9.194;2022-08-04T16:50:51;35.80;33.90
4245;DHT22;2136;48.502;9.194;2022-08-04T16:53:21;35.70;34.20
4245;DHT22;2136;48.502;9.194;2022-08-04T16:55:51;35.70;34.30
4245;DHT22;2136;48.502;9.194;2022-08-04T16:58:24;35.60;34.60
4245;DHT22;2136;48.502;9.194;2022-08-04T17:00:52;35.50;34.80
4245;DHT22;2136;48.502;9.194;2022-08-04T17:03:19;35.40;34.50
4245;DHT22;2136;48.502;9.194;2022-08-04T17:05:46;35.30;34.60
4245;DHT22;2136;48.502;9.194;2022-08-04T17:08:13;35.20;34.70
4245;DHT22;2136;48.502;9.194;2022-08-04T17:10:45;35.00;34.70
4245;DHT22;2136;48.502;9.194;2022-08-04T17:13:29;35.00;35.00
4245;DHT22;2136;48.502;9.194;2022-08-04T17:15:58;34.80;35.50
4245;DHT22;2136;48.502;9.194;2022-08-04T17:18:27;34.70;35.40
4245;DHT22;2136;48.502;9.194;2022-08-04T17:20:55;34.60;36.10
4245;DHT22;2136;48.502;9.194;2022-08-04T17:23:33;34.50;35.70
4245;DHT22;2136;48.502;9.194;2022-08-04T17:26:04;34.40;35.90
4245;DHT22;2136;48.502;9.194;2022-08-04T17:28:33;34.30;36.00
4245;DHT22;2136;48.502;9.194;2022-08-04T17:31:01;34.30;36.10
4245;DHT22;2136;48.502;9.194;2022-08-04T17:33:28;34.20;36.40
4245;DHT22;2136;48.502;9.194;2022-08-04T17:35:57;34.10;36.50
4245;DHT22;2136;48.502;9.194;2022-08-04T17:38:32;34.00;36.80
4245;DHT22;2136;48.502;9.194;2022-08-04T17:41:03;34.00;37.20
4245;DHT22;2136;48.502;9.194;2022-08-04T17:43:41;33.90;37.20
4245;DHT22;2136;48.502;9.194;2022-08-04T17:46:23;33.80;37.50
4245;DHT22;2136;48.502;9.194;2022-08-04T17:48:58;33.70;37.50
4245;DHT22;2136;48.502;9.194;2022-08-04T17:51:37;33.60;37.60
4245;DHT22;2136;48.502;9.194;2022-08-04T17:54:06;33.60;37.90
4245;DHT22;2136;48.502;9.194;2022-08-04T17:56:37;33.60;38.20
4245;DHT22;2136;48.502;9.194;2022-08-04T17:59:14;33.50;39.00